createdAt,value
2018-03-11T00:00:05.342Z,998.77
2018-03-11T00:05:03.634Z,998.77
2018-03-11T00:10:03.101Z,998.78
2018-03-11T00:15:03.582Z,998.77
2018-03-11T00:20:03.160Z,998.75
2018-03-11T00:25:03.642Z,998.85
2018-03-11T00:30:03.113Z,998.78
2018-03-11T00:35:03.633Z,998.76
2018-03-11T00:40:03.094Z,998.77
2018-03-11T00:45:03.599Z,998.71
2018-03-11T00:50:03.134Z,998.57
2018-03-11T00:55:03.584Z,998.54
2018-03-11T01:00:03.003Z,998.56
2018-03-11T01:05:03.204Z,998.39
2018-03-11T01:10:02.797Z,998.34
2018-03-11T01:15:03.386Z,998.28
2018-03-11T01:20:02.970Z,998.19
2018-03-11T01:25:03.384Z,998.03
2018-03-11T01:30:02.821Z,997.94
2018-03-11T01:35:03.552Z,997.8
2018-03-11T01:40:03.240Z,997.86
2018-03-11T01:45:03.677Z,997.81
2018-03-11T01:50:03.225Z,997.75
2018-03-11T01:55:02.710Z,997.61
2018-03-11T02:00:03.216Z,997.52
2018-03-11T02:05:03.685Z,997.42
2018-03-11T02:10:03.263Z,997.35
2018-03-11T02:15:02.738Z,997.23
2018-03-11T02:20:03.197Z,997.12
2018-03-11T02:25:02.718Z,997.04
2018-03-11T02:30:03.261Z,997.07
2018-03-11T02:35:02.885Z,996.99
2018-03-11T02:40:03.424Z,996.97
2018-03-11T02:45:02.868Z,996.92
2018-03-11T02:50:03.369Z,996.94
2018-03-11T02:55:02.860Z,996.89
2018-03-11T03:00:03.374Z,996.82
2018-03-11T03:05:03.095Z,996.77
2018-03-11T03:10:03.630Z,996.69
2018-03-11T03:15:03.046Z,996.67
2018-03-11T03:20:03.580Z,996.64
2018-03-11T03:25:03.021Z,996.53
2018-03-11T03:30:03.573Z,996.4
2018-03-11T03:35:03.047Z,996.2
2018-03-11T03:40:03.654Z,996.21
2018-03-11T03:45:03.168Z,996.18
2018-03-11T03:50:02.690Z,996.18
2018-03-11T03:55:03.187Z,996.22
2018-03-11T04:00:03.786Z,996.04
2018-03-11T04:05:03.338Z,996.02
2018-03-11T04:10:02.892Z,995.83
2018-03-11T04:15:03.429Z,995.77
2018-03-11T04:20:02.947Z,995.63
2018-03-11T04:25:03.451Z,995.58
2018-03-11T04:30:03.055Z,995.54
2018-03-11T04:35:03.577Z,995.39
2018-03-11T04:40:03.104Z,995.25
2018-03-11T04:45:03.620Z,995.29
2018-03-11T04:50:03.113Z,995.21
2018-03-11T04:55:03.658Z,995.12
2018-03-11T05:00:03.087Z,995.05
2018-03-11T05:05:03.680Z,994.93
2018-03-11T05:10:03.228Z,994.81
2018-03-11T05:15:02.711Z,994.72
2018-03-11T05:20:03.283Z,994.55
2018-03-11T05:25:02.789Z,994.43
2018-03-11T05:30:03.496Z,994.52
2018-03-11T05:35:03.137Z,994.48
2018-03-11T05:40:03.689Z,994.44
2018-03-11T05:45:03.168Z,994.42
2018-03-11T05:50:03.077Z,994.41
2018-03-11T05:55:03.546Z,994.33
2018-03-11T06:00:03.014Z,994.19
2018-03-11T06:05:03.432Z,994
2018-03-11T06:10:02.974Z,993.83
2018-03-11T06:15:03.462Z,993.92
2018-03-11T06:20:02.999Z,993.96
2018-03-11T06:25:03.526Z,993.84
2018-03-11T06:30:02.961Z,993.82
2018-03-11T06:35:03.489Z,993.79
2018-03-11T06:40:02.966Z,993.66
2018-03-11T06:45:03.464Z,993.75
2018-03-11T06:50:02.881Z,993.7
2018-03-11T06:55:03.360Z,993.6
2018-03-11T07:00:02.837Z,993.4
2018-03-11T07:05:03.330Z,993.27
2018-03-11T07:10:02.877Z,993.31
2018-03-11T07:15:03.353Z,993.29
2018-03-11T07:20:02.863Z,993.27
2018-03-11T07:25:03.437Z,993.28
2018-03-11T07:30:03.352Z,993.17
2018-03-11T07:35:02.846Z,993.18
2018-03-11T07:40:03.360Z,993.04
2018-03-11T07:45:02.778Z,992.93
2018-03-11T07:50:03.278Z,992.85
2018-03-11T07:55:02.782Z,992.96
2018-03-11T08:00:03.518Z,992.98
2018-03-11T08:05:03.093Z,993.09
2018-03-11T08:10:03.703Z,993.13
2018-03-11T08:15:03.173Z,993.14
2018-03-11T08:20:02.689Z,993.05
2018-03-11T08:25:03.170Z,993.1
2018-03-11T08:30:02.732Z,993.09
2018-03-11T08:35:03.237Z,992.99
2018-03-11T08:40:02.811Z,992.94
2018-03-11T08:45:03.361Z,992.89
2018-03-11T08:50:03.016Z,992.83
2018-03-11T08:55:03.559Z,992.82
2018-03-11T09:00:03.059Z,992.72
2018-03-11T09:05:03.798Z,992.71
2018-03-11T09:10:03.434Z,992.76
2018-03-11T09:15:02.880Z,992.79
2018-03-11T09:20:03.397Z,992.8
2018-03-11T09:25:02.886Z,992.78
2018-03-11T09:30:03.415Z,992.73
2018-03-11T09:35:02.933Z,992.77
2018-03-11T09:40:03.555Z,992.78
2018-03-11T09:45:03.094Z,992.87
2018-03-11T09:50:03.564Z,992.71
2018-03-11T09:55:03.033Z,992.69
2018-03-11T10:00:03.564Z,992.66
2018-03-11T10:05:03.168Z,992.58
2018-03-11T10:10:02.738Z,992.53
2018-03-11T10:15:03.167Z,992.65
2018-03-11T10:20:03.654Z,992.64
2018-03-11T10:25:03.145Z,992.69
2018-03-11T10:30:03.642Z,992.64
2018-03-11T10:35:03.160Z,992.6
2018-03-11T10:40:03.730Z,992.65
2018-03-11T10:45:03.267Z,992.69
2018-03-11T10:50:02.747Z,992.55
2018-03-11T10:55:03.156Z,992.59
2018-03-11T11:00:03.625Z,992.56
2018-03-11T11:05:03.140Z,992.63
2018-03-11T11:10:02.715Z,992.53
2018-03-11T11:15:03.129Z,992.66
2018-03-11T11:20:02.714Z,992.54
2018-03-11T11:25:03.212Z,992.61
2018-03-11T11:30:02.733Z,992.62
2018-03-11T11:35:03.299Z,992.54
2018-03-11T11:40:02.791Z,992.52
2018-03-11T11:45:03.295Z,992.58
2018-03-11T11:50:02.856Z,992.53
2018-03-11T11:55:03.336Z,992.5
2018-03-11T12:00:03.228Z,992.55
2018-03-11T12:05:02.824Z,992.53
2018-03-11T12:10:03.359Z,992.37
2018-03-11T12:15:02.912Z,992.39
2018-03-11T12:20:03.468Z,992.38
2018-03-11T12:25:02.890Z,992.39
2018-03-11T12:30:03.372Z,992.44
2018-03-11T12:35:02.856Z,992.42
2018-03-11T12:40:03.394Z,992.37
2018-03-11T12:45:02.847Z,992.37
2018-03-11T12:50:03.270Z,992.28
2018-03-11T12:55:02.797Z,992.35
2018-03-11T13:00:03.258Z,992.3
2018-03-11T13:05:02.766Z,992.39
2018-03-11T13:10:03.395Z,992.36
2018-03-11T13:15:02.889Z,992.3
2018-03-11T13:20:03.386Z,992.35
2018-03-11T13:25:02.901Z,992.31
2018-03-11T13:30:03.437Z,992.33
2018-03-11T13:35:02.969Z,992.29
2018-03-11T13:40:03.528Z,992.43
2018-03-11T13:45:03.092Z,992.31
2018-03-11T13:50:03.476Z,992.38
2018-03-11T13:55:03.005Z,992.2
2018-03-11T14:00:03.534Z,992.12
2018-03-11T14:05:03.001Z,992.06
2018-03-11T14:10:03.663Z,992.19
2018-03-11T14:15:03.151Z,992.15
2018-03-11T14:20:02.755Z,992.1
2018-03-11T14:25:03.268Z,992
2018-03-11T14:30:02.842Z,992.12
2018-03-11T14:35:03.446Z,992.27
2018-03-11T14:40:02.954Z,992.34
2018-03-11T14:45:03.915Z,992.29
2018-03-11T14:50:03.430Z,992.24
2018-03-11T14:55:02.956Z,992.31
2018-03-11T15:00:03.517Z,992.35
2018-03-11T15:05:02.955Z,992.36
2018-03-11T15:10:03.497Z,992.3
2018-03-11T15:15:02.947Z,992.09
2018-03-11T15:20:03.572Z,992.31
2018-03-11T15:25:03.081Z,992.27
2018-03-11T15:30:03.587Z,992.27
2018-03-11T15:35:03.096Z,992.15
2018-03-11T15:40:03.705Z,992.19
2018-03-11T15:45:03.229Z,992.19
2018-03-11T15:50:02.793Z,992.2
2018-03-11T15:55:03.336Z,1030
2018-03-11T16:00:02.826Z,1030
2018-03-11T16:05:03.436Z,1030
2018-03-11T16:10:03.026Z,1030
2018-03-11T16:15:03.752Z,1030
2018-03-11T16:20:03.627Z,1030
2018-03-11T16:25:03.180Z,1030
2018-03-11T16:30:03.606Z,1030
2018-03-11T16:35:03.126Z,1030
2018-03-11T16:40:04.140Z,1030
2018-03-11T16:45:02.717Z,1030
2018-03-11T16:50:03.267Z,1030
2018-03-11T16:55:03.682Z,1030
2018-03-11T17:00:03.298Z,1030
2018-03-11T17:05:02.867Z,1030
2018-03-11T17:10:03.405Z,1030
2018-03-11T17:15:02.885Z,1030
2018-03-11T17:20:03.497Z,1030
2018-03-11T17:25:03.075Z,1030
2018-03-11T17:30:03.513Z,1030
2018-03-11T17:35:03.009Z,1030
2018-03-11T17:40:03.597Z,1030
2018-03-11T17:45:03.114Z,1030
2018-03-11T17:50:03.677Z,1030
2018-03-11T17:55:03.237Z,1030
2018-03-11T18:00:02.773Z,1030
2018-03-11T18:05:02.716Z,1030
2018-03-11T18:10:03.337Z,1030
2018-03-11T18:15:02.862Z,1030
2018-03-11T18:20:03.472Z,1030
2018-03-11T18:25:03.036Z,1030
2018-03-11T18:30:03.532Z,1030
2018-03-11T18:35:02.998Z,1030
2018-03-11T18:40:03.577Z,1030
2018-03-11T18:45:03.114Z,1030
2018-03-11T18:50:03.632Z,1030
2018-03-11T18:55:04.161Z,1030
2018-03-11T19:00:04.029Z,1030
2018-03-11T19:05:02.703Z,1030
2018-03-11T19:10:03.244Z,1030
2018-03-11T19:15:02.658Z,1030
2018-03-11T19:20:03.251Z,1030
2018-03-11T19:25:02.744Z,1030
2018-03-11T19:30:03.347Z,1030
2018-03-11T19:35:03.203Z,1030
2018-03-11T19:40:02.848Z,1030
2018-03-11T19:45:03.431Z,1030
2018-03-11T19:50:02.936Z,1030
2018-03-11T19:55:03.555Z,1030
2018-03-11T20:00:04.290Z,1030
2018-03-11T20:05:03.169Z,1030
2018-03-11T20:10:02.949Z,1030
2018-03-11T20:15:03.994Z,1030
2018-03-11T20:20:04.465Z,1030
2018-03-11T20:25:04.629Z,1030
2018-03-11T20:30:03.220Z,1030
2018-03-11T20:35:03.011Z,1030
2018-03-11T20:40:03.898Z,1030
2018-03-11T20:45:03.423Z,1030
2018-03-11T20:50:03.946Z,1030
2018-03-11T20:55:03.741Z,1030
2018-03-11T21:00:03.520Z,1030
2018-03-11T21:05:03.095Z,1030
2018-03-11T21:10:03.682Z,1030
2018-03-11T21:15:03.185Z,1030
2018-03-11T21:20:03.662Z,1030
2018-03-11T21:25:03.151Z,1030
2018-03-11T21:30:03.637Z,1030
2018-03-11T21:35:03.221Z,1030
2018-03-11T21:40:02.745Z,1030
2018-03-11T21:45:03.223Z,1030
2018-03-11T21:50:02.711Z,1030
2018-03-11T21:55:03.261Z,1030
2018-03-11T22:00:02.763Z,1030
2018-03-11T22:05:03.650Z,1030
2018-03-11T22:10:03.354Z,1030
2018-03-11T22:15:02.842Z,1030
2018-03-11T22:20:03.384Z,1030
2018-03-11T22:25:02.834Z,1030
2018-03-11T22:30:03.564Z,1030
2018-03-11T22:35:03.023Z,1030
2018-03-11T22:40:03.562Z,1030
2018-03-11T22:45:03.078Z,1030
2018-03-11T22:50:03.636Z,1030
2018-03-11T22:55:03.054Z,1030
2018-03-11T23:00:03.618Z,1030
2018-03-11T23:05:03.051Z,1030
2018-03-11T23:10:04.209Z,1030
2018-03-11T23:15:02.780Z,1030
2018-03-11T23:20:03.280Z,1030
2018-03-11T23:25:02.823Z,1030
2018-03-11T23:30:03.332Z,1030
2018-03-11T23:35:02.882Z,1030
2018-03-11T23:40:03.447Z,1030
2018-03-11T23:45:02.936Z,1030
2018-03-11T23:50:03.440Z,1030
2018-03-11T23:55:02.897Z,1030
